Time;durP1;ratioP1;P1;durP2;ratioP2;P2;SDS_P1;SDS_P2;PMS_P1;PMS_P2;Temp;Humidity;BMP_temperature;BMP_pressure;BME280_temperature;BME280_humidity;BME280_pressure;Samples;Min_cycle;Max_cycle;Signal;HPM_P1;HPM_P2
2022/08/10 00:01:30;;;;;;;4.90;4.13;;;11.40;99.90;;;;;;4989119;28;20038;-34
2022/08/10 00:03:56;;;;;;;5.15;4.43;;;11.40;99.90;;;;;;4989256;28;20543;-34
2022/08/10 00:06:22;;;;;;;6.70;4.88;;;11.30;99.90;;;;;;4989085;28;20449;-34
2022/08/10 00:08:47;;;;;;;7.45;5.53;;;11.20;99.90;;;;;;4989110;28;20382;-33
2022/08/10 00:11:13;;;;;;;4.85;4.35;;;11.60;99.90;;;;;;4989377;28;20153;-33
2022/08/10 00:13:39;;;;;;;6.60;5.15;;;11.50;99.90;;;;;;4989128;28;20074;-33
2022/08/10 00:16:04;;;;;;;7.05;5.30;;;11.10;99.90;;;;;;4988972;28;20152;-34
2022/08/10 00:18:31;;;;;;;6.18;4.78;;;11.10;99.90;;;;;;4989143;28;20066;-34
2022/08/10 00:20:56;;;;;;;6.22;5.20;;;11.70;99.90;;;;;;4989508;28;20427;-34
2022/08/10 00:23:22;;;;;;;6.20;5.38;;;11.60;99.90;;;;;;4989230;28;20050;-34
2022/08/10 00:25:48;;;;;;;6.88;5.45;;;11.10;99.90;;;;;;4989396;28;20526;-34
2022/08/10 00:28:13;;;;;;;9.75;6.30;;;12.00;99.90;;;;;;4989287;28;20046;-33
2022/08/10 00:30:39;;;;;;;8.05;5.93;;;11.10;99.90;;;;;;4989078;28;20057;-33
2022/08/10 00:33:05;;;;;;;8.00;5.93;;;11.20;99.90;;;;;;4988584;28;20113;-33
2022/08/10 00:35:30;;;;;;;7.53;6.20;;;11.10;99.90;;;;;;4988274;28;20061;-33
2022/08/10 00:37:57;;;;;;;7.35;5.30;;;11.00;99.90;;;;;;4988960;28;20101;-34
2022/08/10 00:40:23;;;;;;;7.45;6.28;;;11.00;99.90;;;;;;4988874;28;20053;-33
2022/08/10 00:42:49;;;;;;;7.63;5.75;;;11.00;99.90;;;;;;4988903;28;20058;-34
2022/08/10 00:45:14;;;;;;;7.72;5.85;;;11.00;99.90;;;;;;4988441;28;20046;-34
2022/08/10 00:47:40;;;;;;;8.40;5.50;;;10.80;99.90;;;;;;4987805;28;20133;-33
2022/08/10 00:50:07;;;;;;;7.25;5.60;;;10.90;99.90;;;;;;4988189;28;20042;-34
2022/08/10 00:52:35;;;;;;;6.13;5.15;;;10.90;99.90;;;;;;4988061;28;20056;-33
2022/08/10 00:55:02;;;;;;;6.18;4.90;;;10.80;99.90;;;;;;4987712;28;20591;-33
2022/08/10 00:57:28;;;;;;;7.97;5.75;;;10.80;99.90;;;;;;4988013;28;20043;-32
2022/08/10 00:59:54;;;;;;;6.25;4.88;;;11.70;99.90;;;;;;4987767;28;20086;-33
2022/08/10 01:02:19;;;;;;;8.57;6.10;;;11.20;99.90;;;;;;4987707;28;20080;-34
2022/08/10 01:04:45;;;;;;;8.18;6.22;;;10.90;99.90;;;;;;4988066;28;20629;-34
2022/08/10 01:07:41;;;;;;;7.38;5.60;;;10.60;99.90;;;;;;4988486;28;20034;-34
2022/08/10 01:10:31;;;;;;;7.57;5.85;;;10.90;99.90;;;;;;4988724;28;20074;-33
2022/08/10 01:13:03;;;;;;;7.63;4.80;;;10.90;99.90;;;;;;4988226;28;20484;-34
2022/08/10 01:16:03;;;;;;;6.10;5.07;;;10.80;99.90;;;;;;4987987;28;20101;-33
2022/08/10 01:18:41;;;;;;;5.80;4.72;;;10.80;99.90;;;;;;4987612;28;20054;-34
2022/08/10 01:21:28;;;;;;;10.32;6.47;;;10.80;99.90;;;;;;4987728;28;20050;-33
2022/08/10 01:24:06;;;;;;;8.00;6.13;;;10.70;99.90;;;;;;4988056;28;20039;-34
2022/08/10 01:27:10;;;;;;;6.70;5.28;;;10.80;99.90;;;;;;4987245;28;20105;-34
2022/08/10 01:30:13;;;;;;;9.82;6.90;;;10.70;99.90;;;;;;4987206;28;20133;-33
2022/08/10 01:32:52;;;;;;;11.00;7.85;;;10.70;99.90;;;;;;4975350;28;20046;-33
2022/08/10 01:35:36;;;;;;;12.55;8.38;;;10.70;99.90;;;;;;4988048;28;20038;-34
2022/08/10 01:38:27;;;;;;;14.15;8.98;;;10.70;99.90;;;;;;4987377;28;20038;-33
2022/08/10 01:41:01;;;;;;;12.38;9.70;;;10.80;99.90;;;;;;4981059;28;20054;-34
2022/08/10 01:43:29;;;;;;;16.50;10.57;;;10.80;99.90;;;;;;4986864;28;20057;-34
2022/08/10 01:45:58;;;;;;;14.60;10.18;;;12.00;99.90;;;;;;4987452;28;20520;-34
2022/08/10 01:48:47;;;;;;;16.85;11.05;;;10.90;99.90;;;;;;4987363;28;20112;-33
2022/08/10 01:51:24;;;;;;;18.67;11.48;;;10.90;99.90;;;;;;4978061;28;20156;-34
2022/08/10 01:53:54;;;;;;;22.33;12.18;;;10.90;99.90;;;;;;4987085;28;20346;-33
2022/08/10 01:56:23;;;;;;;26.20;13.32;;;11.20;99.90;;;;;;4987391;28;20060;-33
2022/08/10 01:58:55;;;;;;;15.77;10.30;;;11.60;99.90;;;;;;4987374;28;20057;-33
2022/08/10 02:01:22;;;;;;;;;;;11.30;99.90;;;;;;4987989;28;20057;-34
2022/08/10 02:03:51;;;;;;;17.15;10.90;;;12.00;99.90;;;;;;4987247;28;19972;-34
2022/08/10 02:06:19;;;;;;;18.45;11.52;;;11.30;99.90;;;;;;4987265;28;20090;-34
2022/08/10 02:08:47;;;;;;;14.65;10.95;;;11.30;99.90;;;;;;4987224;28;20038;-33
2022/08/10 02:11:13;;;;;;;17.58;10.45;;;11.20;99.90;;;;;;4987305;28;20035;-33
2022/08/10 02:13:41;;;;;;;11.65;8.60;;;11.30;99.90;;;;;;4986921;28;20435;-33
2022/08/10 02:16:09;;;;;;;11.30;8.48;;;11.20;99.90;;;;;;4987105;28;20047;-34
2022/08/10 02:18:36;;;;;;;12.52;9.30;;;11.10;99.90;;;;;;4986745;28;20062;-33
2022/08/10 02:21:05;;;;;;;11.30;8.55;;;11.00;99.90;;;;;;4987019;28;20114;-33
2022/08/10 02:23:36;;;;;;;8.93;7.20;;;11.80;99.90;;;;;;4986990;28;20117;-33
2022/08/10 02:26:04;;;;;;;9.13;6.88;;;10.90;99.90;;;;;;4986920;28;20073;-33
2022/08/10 02:28:32;;;;;;;6.70;5.32;;;10.80;99.90;;;;;;4987420;28;20077;-33
2022/08/10 02:31:11;;;;;;;10.80;6.07;;;10.90;99.90;;;;;;4986961;28;20489;-34
2022/08/10 02:33:39;;;;;;;8.75;6.40;;;11.00;99.90;;;;;;4986535;28;20141;-33
2022/08/10 02:36:08;;;;;;;11.98;6.25;;;10.70;99.90;;;;;;4986584;28;20105;-34
2022/08/10 02:38:40;;;;;;;8.68;6.70;;;10.60;99.90;;;;;;4986755;28;20050;-34
2022/08/10 02:41:38;;;;;;;6.57;5.43;;;10.40;99.90;;;;;;4986855;28;20038;-33
2022/08/10 02:44:12;;;;;;;7.63;5.55;;;10.60;99.90;;;;;;4986703;28;20133;-33
2022/08/10 02:46:54;;;;;;;8.13;5.78;;;10.60;99.90;;;;;;4985148;28;20046;-33
2022/08/10 02:49:27;;;;;;;;;;;10.60;99.90;;;;;;4987332;28;20483;-33
2022/08/10 02:52:06;;;;;;;8.10;4.47;;;10.50;99.90;;;;;;4986939;28;19925;-33
2022/08/10 02:54:37;;;;;;;6.13;4.30;;;10.40;99.90;;;;;;4986984;28;20053;-33
2022/08/10 02:57:26;;;;;;;8.63;5.18;;;10.40;99.90;;;;;;4990358;28;20117;-33
2022/08/10 02:59:56;;;;;;;11.45;6.20;;;10.40;99.90;;;;;;4989754;28;20050;-33
2022/08/10 03:02:39;;;;;;;8.10;6.13;;;10.40;99.90;;;;;;4990625;28;20478;-34
2022/08/10 03:05:10;;;;;;;13.02;8.00;;;10.40;99.90;;;;;;4989979;28;20508;-34
2022/08/10 03:07:58;;;;;;;74.50;15.55;;;10.30;99.90;;;;;;4990684;28;20117;-33
2022/08/10 03:10:27;;;;;;;48.92;13.27;;;10.40;99.90;;;;;;4990637;28;20096;-33
2022/08/10 03:13:01;;;;;;;14.27;9.80;;;10.50;99.90;;;;;;4990496;28;20385;-33
2022/08/10 03:15:29;;;;;;;9.55;7.30;;;10.50;99.90;;;;;;4990368;28;20404;-33
2022/08/10 03:17:57;;;;;;;8.75;6.03;;;10.90;99.90;;;;;;4989693;28;20108;-33
2022/08/10 03:20:24;;;;;;;10.13;6.78;;;10.60;99.90;;;;;;4989928;28;20803;-33
2022/08/10 03:22:51;;;;;;;10.75;6.40;;;10.40;99.90;;;;;;4989575;28;20046;-33
2022/08/10 03:25:20;;;;;;;8.80;5.88;;;10.30;99.90;;;;;;4989807;28;20054;-33
2022/08/10 03:27:47;;;;;;;7.75;5.35;;;10.60;99.90;;;;;;4989894;28;20089;-33
2022/08/10 03:30:14;;;;;;;8.68;6.05;;;11.00;99.90;;;;;;4988750;28;20093;-33
2022/08/10 03:32:41;;;;;;;10.30;6.50;;;10.20;99.90;;;;;;4990411;28;20042;-34
2022/08/10 03:35:08;;;;;;;7.75;5.93;;;10.20;99.90;;;;;;4990541;28;20125;-33
2022/08/10 03:37:34;;;;;;;9.68;5.78;;;10.20;99.90;;;;;;4990074;28;20077;-33
2022/08/10 03:40:00;;;;;;;7.57;6.18;;;10.90;99.90;;;;;;4988253;28;20367;-33
2022/08/10 03:42:27;;;;;;;7.05;4.85;;;10.10;99.90;;;;;;4989645;28;20050;-33
2022/08/10 03:44:55;;;;;;;4.82;2.63;;;10.10;99.90;;;;;;4989245;28;20054;-34
2022/08/10 03:47:22;;;;;;;3.35;2.40;;;10.10;99.90;;;;;;4989400;28;20038;-33
2022/08/10 03:49:49;;;;;;;3.10;2.13;;;10.70;99.90;;;;;;4989467;28;20070;-33
2022/08/10 03:52:16;;;;;;;4.03;2.40;;;10.80;99.90;;;;;;4988393;28;20050;-33
2022/08/10 03:54:43;;;;;;;3.38;2.30;;;10.00;99.90;;;;;;4989548;28;20054;-33
2022/08/10 03:57:09;;;;;;;7.93;3.65;;;10.10;99.90;;;;;;4989271;28;20077;-34
2022/08/10 03:59:36;;;;;;;10.65;5.30;;;9.80;99.90;;;;;;4989256;28;20465;-33
2022/08/10 04:02:05;;;;;;;6.65;4.22;;;10.20;99.90;;;;;;4988930;28;20436;-33
2022/08/10 04:04:31;;;;;;;6.55;4.45;;;9.90;99.90;;;;;;4989560;28;20089;-34
2022/08/10 04:06:58;;;;;;;4.85;3.00;;;10.00;99.90;;;;;;4988264;28;20042;-33
2022/08/10 04:09:30;;;;;;;4.60;2.45;;;9.90;99.90;;;;;;4989126;28;20384;-32
2022/08/10 04:11:55;;;;;;;3.75;2.65;;;9.90;99.90;;;;;;4988969;28;20121;-33
2022/08/10 04:14:21;;;;;;;53.20;7.68;;;9.80;99.90;;;;;;4989211;28;20193;-34
2022/08/10 04:16:47;;;;;;;37.53;7.47;;;10.00;99.90;;;;;;4988589;28;20043;-33
2022/08/10 04:19:15;;;;;;;116.82;11.55;;;10.60;99.90;;;;;;4989089;28;20104;-33
2022/08/10 04:21:46;;;;;;;126.15;11.88;;;10.60;99.90;;;;;;4988914;28;20479;-33
2022/08/10 04:24:19;;;;;;;14.93;8.45;;;9.90;99.90;;;;;;4988996;28;20049;-33
2022/08/10 04:26:45;;;;;;;145.27;9.95;;;10.60;99.90;;;;;;4988789;28;20042;-33
2022/08/10 04:29:11;;;;;;;112.68;7.55;;;10.10;99.90;;;;;;4988807;28;20035;-33
2022/08/10 04:31:39;;;;;;;80.90;6.75;;;10.10;99.90;;;;;;4988816;28;20069;-33
2022/08/10 04:34:06;;;;;;;29.98;6.18;;;10.00;99.90;;;;;;4988478;28;20086;-33
2022/08/10 04:36:33;;;;;;;8.52;4.95;;;10.00;99.90;;;;;;4988438;28;20241;-34
2022/08/10 04:38:59;;;;;;;10.40;6.15;;;10.00;99.90;;;;;;4988490;28;20045;-33
2022/08/10 04:41:25;;;;;;;8.82;6.00;;;10.20;99.90;;;;;;4988343;28;20396;-33
2022/08/10 04:43:51;;;;;;;6.68;5.20;;;10.00;99.90;;;;;;4987871;28;20042;-33
2022/08/10 04:46:17;;;;;;;7.00;4.80;;;10.30;99.90;;;;;;4988337;28;20053;-33
2022/08/10 04:48:42;;;;;;;6.28;5.10;;;10.40;99.90;;;;;;4988570;28;20425;-33
2022/08/10 04:51:10;;;;;;;8.02;5.10;;;10.20;99.90;;;;;;4988596;28;20113;-34
2022/08/10 04:53:36;;;;;;;5.95;4.32;;;10.00;99.90;;;;;;4988579;28;20113;-33
2022/08/10 04:56:02;;;;;;;6.22;4.85;;;10.40;99.90;;;;;;4987848;28;20196;-33
2022/08/10 04:58:27;;;;;;;8.20;5.60;;;10.00;99.90;;;;;;4988804;28;20046;-32
2022/08/10 05:00:53;;;;;;;7.32;5.57;;;10.10;99.90;;;;;;4987914;28;20069;-33
2022/08/10 05:03:19;;;;;;;7.22;5.15;;;10.50;99.90;;;;;;4988012;28;20061;-34
2022/08/10 05:05:45;;;;;;;5.38;4.60;;;10.40;99.90;;;;;;4987948;28;20042;-33
2022/08/10 05:08:10;;;;;;;6.57;4.75;;;10.40;99.90;;;;;;4987922;28;20045;-33
2022/08/10 05:10:36;;;;;;;5.25;3.60;;;10.40;99.90;;;;;;4988259;28;20046;-33
2022/08/10 05:13:01;;;;;;;6.57;5.10;;;10.60;99.90;;;;;;4986693;28;20051;-33
2022/08/10 05:15:27;;;;;;;9.45;5.93;;;10.50;99.90;;;;;;4988097;28;20043;-33
2022/08/10 05:17:53;;;;;;;5.85;5.00;;;11.40;99.90;;;;;;4987681;28;20185;-33
2022/08/10 05:20:19;;;;;;;5.57;4.43;;;11.10;99.90;;;;;;4987974;28;20184;-33
2022/08/10 05:22:45;;;;;;;7.70;5.35;;;11.10;99.90;;;;;;4987961;28;20117;-33
2022/08/10 05:25:16;;;;;;;51.85;7.70;;;11.10;99.90;;;;;;4987615;28;20445;-34
2022/08/10 05:27:43;;;;;;;37.03;6.60;;;11.10;99.90;;;;;;4987718;28;20038;-33
2022/08/10 05:30:15;;;;;;;52.92;7.13;;;11.30;99.90;;;;;;4987657;28;20046;-34
2022/08/10 05:32:40;;;;;;;8.85;6.53;;;11.60;99.90;;;;;;4987348;28;20069;-34
2022/08/10 05:35:06;;;;;;;6.68;5.22;;;12.00;99.90;;;;;;4987472;28;20081;-34
2022/08/10 05:37:32;;;;;;;6.63;5.53;;;12.20;99.90;;;;;;4987396;28;20050;-34
2022/08/10 05:40:00;;;;;;;5.75;4.75;;;12.80;99.90;;;;;;4987190;28;20081;-33
2022/08/10 05:42:27;;;;;;;17.80;10.60;;;12.90;99.90;;;;;;4987542;28;20392;-34
2022/08/10 05:44:52;;;;;;;9.40;6.88;;;13.10;99.90;;;;;;4987343;28;20089;-34
2022/08/10 05:47:18;;;;;;;13.82;10.52;;;13.60;99.90;;;;;;4987376;28;20070;-34
2022/08/10 05:49:47;;;;;;;14.13;9.23;;;14.00;99.90;;;;;;4987628;28;20043;-34
2022/08/10 05:52:13;;;;;;;12.60;8.95;;;14.40;99.90;;;;;;4987416;28;20048;-34
2022/08/10 05:54:39;;;;;;;13.93;10.32;;;14.80;99.90;;;;;;4987545;28;20050;-34
2022/08/10 05:57:05;;;;;;;13.05;9.05;;;16.10;99.90;;;;;;4987001;28;20100;-33
2022/08/10 05:59:33;;;;;;;12.43;9.40;;;18.90;99.90;;;;;;4987332;28;20056;-33
2022/08/10 06:02:08;;;;;;;10.32;8.10;;;19.00;99.90;;;;;;4986295;28;20042;-35
2022/08/10 06:04:39;;;;;;;11.18;7.85;;;19.20;99.90;;;;;;4986454;28;20042;-35
2022/08/10 06:07:07;;;;;;;9.73;7.90;;;20.70;99.90;;;;;;4986224;28;20537;-34
2022/08/10 06:09:35;;;;;;;11.93;7.00;;;22.00;99.90;;;;;;4986209;28;20072;-34
2022/08/10 06:12:01;;;;;;;10.30;7.57;;;22.90;99.90;;;;;;4985568;28;20048;-33
2022/08/10 06:17:13;;;;;;;6.85;6.15;;;21.80;99.90;;;;;;4984874;28;20128;-34
2022/08/10 06:19:40;;;;;;;7.70;6.85;;;21.10;99.90;;;;;;4985543;28;20042;-34
2022/08/10 06:22:06;;;;;;;8.38;6.68;;;20.60;99.90;;;;;;4986395;28;20038;-35
2022/08/10 06:24:36;;;;;;;7.82;6.15;;;20.30;99.90;;;;;;4986363;28;20058;-34
2022/08/10 06:27:02;;;;;;;10.85;6.50;;;20.20;99.90;;;;;;4986362;28;20388;-34
2022/08/10 06:29:30;;;;;;;6.95;5.50;;;20.90;99.90;;;;;;4986212;28;20033;-34
2022/08/10 06:31:58;;;;;;;9.07;5.43;;;21.70;99.90;;;;;;4993023;28;20046;-34
2022/08/10 06:34:32;;;;;;;8.73;4.80;;;22.00;99.90;;;;;;4992754;28;20038;-34
2022/08/10 06:37:01;;;;;;;6.97;5.20;;;22.80;99.80;;;;;;4992341;28;20046;-34
2022/08/10 06:39:27;;;;;;;6.10;4.22;;;22.70;99.30;;;;;;4992009;28;20053;-34
2022/08/10 06:42:00;;;;;;;10.02;4.88;;;22.90;98.20;;;;;;4992523;28;20049;-34
2022/08/10 06:44:31;;;;;;;5.70;4.13;;;23.00;96.80;;;;;;4992221;28;20544;-34
2022/08/10 06:47:00;;;;;;;4.32;3.72;;;22.40;97.20;;;;;;4991999;28;20495;-34
2022/08/10 06:49:25;;;;;;;6.82;3.88;;;21.90;98.50;;;;;;4991859;28;20043;-34
2022/08/10 06:51:54;;;;;;;5.20;3.85;;;21.70;99.90;;;;;;4991947;28;20034;-34
2022/08/10 06:54:23;;;;;;;7.55;3.58;;;22.20;99.90;;;;;;4992276;28;20100;-34
2022/08/10 06:56:53;;;;;;;7.03;3.78;;;22.80;97.50;;;;;;4991748;28;20054;-34
2022/08/10 06:59:31;;;;;;;6.43;3.33;;;22.60;98.20;;;;;;4991917;28;20100;-35
2022/08/10 07:02:01;;;;;;;5.05;3.47;;;22.40;98.50;;;;;;4992449;28;20050;-36
2022/08/10 07:04:31;;;;;;;3.67;3.17;;;22.30;98.70;;;;;;4992098;28;20054;-35
2022/08/10 07:07:04;;;;;;;4.63;2.42;;;22.90;98.30;;;;;;4992163;28;20039;-34
2022/08/10 07:09:31;;;;;;;4.13;3.38;;;25.00;94.30;;;;;;4992301;28;20097;-34
2022/08/10 07:11:58;;;;;;;7.28;3.47;;;24.60;91.60;;;;;;4992027;28;20046;-35
2022/08/10 07:14:25;;;;;;;5.38;3.42;;;24.10;91.60;;;;;;4991998;28;20108;-34
2022/08/10 07:16:52;;;;;;;7.88;3.20;;;23.40;92.30;;;;;;4991082;28;20053;-34
2022/08/10 07:19:20;;;;;;;6.28;3.10;;;23.10;93.20;;;;;;4992103;28;20050;-34
2022/08/10 07:21:47;;;;;;;6.85;3.38;;;23.80;93.20;;;;;;4992166;28;20440;-34
2022/08/10 07:24:15;;;;;;;7.43;3.30;;;23.80;91.90;;;;;;4992033;28;20138;-34
2022/08/10 07:26:47;;;;;;;5.10;3.05;;;23.50;92.60;;;;;;4991936;28;20076;-34
2022/08/10 07:29:15;;;;;;;4.15;2.80;;;23.30;92.70;;;;;;4990694;28;20142;-55
2022/08/10 07:31:42;;;;;;;3.65;2.95;;;23.50;93.40;;;;;;4996283;28;20488;-56
2022/08/10 07:34:08;;;;;;;4.50;2.90;;;24.20;92.70;;;;;;4998382;28;20039;-57
2022/08/10 07:36:39;;;;;;;4.07;2.83;;;24.70;91.70;;;;;;4997614;28;20112;-56
2022/08/10 07:39:06;;;;;;;5.33;2.23;;;24.60;90.80;;;;;;4997184;28;20045;-56
2022/08/10 07:41:33;;;;;;;4.60;2.53;;;24.80;90.40;;;;;;4994517;28;20487;-56
2022/08/10 07:44:02;;;;;;;4.82;2.25;;;25.40;88.90;;;;;;4992992;28;20337;-57
2022/08/10 07:46:30;;;;;;;5.45;2.35;;;26.60;86.40;;;;;;4993154;28;20053;-57
2022/08/10 07:49:11;;;;;;;3.78;1.70;;;27.80;80.60;;;;;;4992995;28;20050;-56
2022/08/10 07:51:37;;;;;;;3.65;1.67;;;28.80;75.20;;;;;;4993457;28;20096;-56
2022/08/10 07:54:06;;;;;;;5.28;1.70;;;29.30;74.00;;;;;;4993640;28;20045;-57
2022/08/10 07:56:36;;;;;;;3.38;1.95;;;28.90;72.70;;;;;;4993555;28;20034;-57
2022/08/10 07:59:08;;;;;;;4.55;1.88;;;28.20;72.80;;;;;;4993640;28;20048;-57
2022/08/10 08:01:37;;;;;;;4.63;1.45;;;27.70;73.50;;;;;;4991236;28;20836;-57
2022/08/10 08:04:05;;;;;;;4.80;1.60;;;27.00;75.50;;;;;;4992367;28;20053;-57
2022/08/10 08:06:32;;;;;;;3.50;1.35;;;26.60;76.40;;;;;;4991895;28;20520;-56
2022/08/10 08:09:02;;;;;;;3.13;1.52;;;26.30;78.10;;;;;;4991058;28;20050;-56
2022/08/10 08:11:28;;;;;;;6.20;1.95;;;26.30;79.00;;;;;;4990553;28;20476;-56
2022/08/10 08:13:55;;;;;;;3.63;1.60;;;26.20;79.70;;;;;;4991409;28;20056;-56
2022/08/10 08:16:22;;;;;;;4.45;1.63;;;26.40;80.20;;;;;;4991548;28;20112;-57
2022/08/10 08:18:52;;;;;;;6.82;1.90;;;27.50;95.10;;;;;;4992368;28;20403;-56
2022/08/10 08:21:18;;;;;;;4.18;1.70;;;28.60;74.90;;;;;;4992075;28;20105;-56
2022/08/10 08:23:46;;;;;;;4.03;1.30;;;30.10;72.80;;;;;;5007433;28;20510;-58
2022/08/10 08:26:12;;;;;;;2.55;1.08;;;31.70;67.90;;;;;;4995308;28;20046;-58
2022/08/10 08:28:39;;;;;;;3.15;1.08;;;32.90;65.60;;;;;;4992576;28;20684;-56
2022/08/10 08:31:05;;;;;;;3.80;1.08;;;34.00;62.00;;;;;;4990334;28;20053;-56
2022/08/10 08:33:33;;;;;;;2.67;0.90;;;35.10;59.80;;;;;;4992113;28;20082;-57
2022/08/10 08:35:59;;;;;;;4.15;0.80;;;36.20;56.80;;;;;;4994327;28;20057;-58
2022/08/10 08:38:26;;;;;;;2.47;1.00;;;36.90;55.00;;;;;;4994103;28;20432;-58
2022/08/10 08:41:02;;;;;;;3.80;0.85;;;37.40;52.60;;;;;;4994796;28;20076;-57
2022/08/10 08:44:06;;;;;;;3.33;0.68;;;38.00;52.10;;;;;;4993297;28;20528;-57
2022/08/10 08:46:49;;;;;;;3.80;0.90;;;38.80;52.00;;;;;;4992805;28;20081;-57
2022/08/10 08:49:15;;;;;;;4.85;1.25;;;39.30;50.40;;;;;;4983507;28;20042;-47
2022/08/10 08:52:06;;;;;;;2.95;0.68;;;40.00;48.60;;;;;;4984584;28;20050;-47
2022/08/10 08:54:45;;;;;;;;;;;40.70;49.30;;;;;;4987303;28;20915;-51
2022/08/10 08:57:33;;;;;;;4.03;1.25;;;41.10;49.40;;;;;;4987437;28;19932;-50
2022/08/10 09:00:08;;;;;;;2.38;0.80;;;41.20;45.90;;;;;;4986599;28;20680;-48
2022/08/10 09:03:12;;;;;;;2.13;0.65;;;41.50;44.80;;;;;;4986230;28;20057;-46
2022/08/10 09:05:41;;;;;;;5.30;0.90;;;41.90;43.20;;;;;;4986983;28;20053;-44
2022/08/10 09:08:16;;;;;;;2.75;0.50;;;42.00;44.20;;;;;;4987217;28;20050;-44
2022/08/10 09:10:51;;;;;;;2.95;0.50;;;42.40;45.00;;;;;;4986750;28;20046;-45
2022/08/10 09:13:33;;;;;;;3.40;0.50;;;42.10;42.00;;;;;;4985097;28;20042;-47
2022/08/10 09:16:17;;;;;;;1.67;0.57;;;41.70;43.20;;;;;;4984878;28;20053;-46
2022/08/10 09:19:07;;;;;;;3.03;0.60;;;41.90;43.10;;;;;;4984861;28;20062;-46
2022/08/10 09:21:59;;;;;;;2.70;0.60;;;42.70;43.30;;;;;;4985926;28;20595;-47
2022/08/10 09:24:31;;;;;;;2.33;0.60;;;43.20;42.00;;;;;;4986572;28;20602;-47
2022/08/10 09:27:02;;;;;;;2.15;0.50;;;43.60;42.40;;;;;;4987119;28;20542;-46
2022/08/10 09:29:43;;;;;;;2.50;0.65;;;44.20;41.30;;;;;;5002093;28;20058;-47
2022/08/10 09:32:22;;;;;;;3.15;0.70;;;44.00;39.80;;;;;;4986116;28;20046;-45
2022/08/10 09:35:26;;;;;;;1.92;0.50;;;43.70;40.70;;;;;;4985646;28;20846;-44
2022/08/10 09:38:15;;;;;;;5.55;0.50;;;43.80;40.80;;;;;;4984944;28;20104;-49
2022/08/10 09:41:16;;;;;;;2.80;0.52;;;43.50;40.70;;;;;;4986051;28;20105;-52
2022/08/10 09:43:59;;;;;;;3.65;0.60;;;43.00;41.30;;;;;;4965684;28;20137;-46
2022/08/10 09:46:32;;;;;;;3.90;0.30;;;43.00;41.00;;;;;;4986314;28;20050;-56
2022/08/10 09:49:11;;;;;;;2.20;0.70;;;42.70;41.20;;;;;;4985790;28;20038;-46
2022/08/10 09:52:06;;;;;;;2.75;0.50;;;42.70;41.60;;;;;;4985280;28;20045;-45
2022/08/10 09:54:39;;;;;;;2.53;0.50;;;42.40;41.10;;;;;;4985571;28;20085;-49
2022/08/10 09:57:25;;;;;;;2.67;0.60;;;42.20;40.40;;;;;;4985832;28;20080;-46
2022/08/10 10:00:02;;;;;;;1.88;0.45;;;41.90;40.70;;;;;;4986286;28;20084;-44
2022/08/10 10:02:41;;;;;;;1.88;0.40;;;41.70;40.60;;;;;;4985775;28;20034;-44
2022/08/10 10:05:26;;;;;;;3.10;0.60;;;41.70;40.80;;;;;;4985871;28;20093;-45
2022/08/10 10:08:16;;;;;;;2.75;0.60;;;41.30;41.20;;;;;;4986412;28;20034;-52
2022/08/10 10:10:54;;;;;;;2.50;0.73;;;41.20;41.20;;;;;;4985886;28;20045;-47
2022/08/10 10:13:56;;;;;;;3.13;0.60;;;41.00;40.80;;;;;;5001008;28;20046;-50
2022/08/10 10:16:31;;;;;;;3.03;0.50;;;40.90;40.30;;;;;;4984706;28;20673;-54
2022/08/10 10:19:09;;;;;;;1.60;0.40;;;41.00;41.50;;;;;;4983791;28;20412;-60
2022/08/10 10:21:47;;;;;;;2.03;0.40;;;41.10;41.60;;;;;;4985720;28;20057;-46
2022/08/10 10:24:25;;;;;;;1.98;0.20;;;41.00;41.60;;;;;;4985797;28;20054;-58
2022/08/10 10:27:21;;;;;;;2.22;0.30;;;41.00;41.30;;;;;;4984451;28;20488;-60
2022/08/10 10:30:11;;;;;;;1.52;0.30;;;40.80;40.30;;;;;;4984320;28;20081;-52
2022/08/10 10:32:52;;;;;;;3.50;0.60;;;40.30;41.20;;;;;;4986006;28;20053;-52
2022/08/10 10:35:31;;;;;;;2.55;0.43;;;38.70;41.30;;;;;;4985792;28;20539;-53
2022/08/10 10:37:57;;;;;;;2.60;0.25;;;37.40;42.70;;;;;;4984326;28;20139;-49
2022/08/10 10:40:27;;;;;;;4.05;0.40;;;36.70;43.70;;;;;;4985366;28;20060;-49
2022/08/10 10:43:12;;;;;;;1.73;0.52;;;36.80;44.80;;;;;;4985069;28;20752;-48
2022/08/10 10:46:00;;;;;;;1.30;0.30;;;37.50;44.70;;;;;;4985484;28;20086;-44
2022/08/10 10:48:44;;;;;;;2.28;0.35;;;38.00;48.50;;;;;;4985395;28;20073;-44
2022/08/10 10:51:28;;;;;;;1.70;0.40;;;38.60;50.30;;;;;;4986042;28;20070;-59
2022/08/10 10:54:09;;;;;;;2.72;0.20;;;38.60;42.20;;;;;;5000546;28;20096;-57
2022/08/10 10:56:50;;;;;;;3.90;0.30;;;37.40;42.80;;;;;;4985335;28;20042;-57
2022/08/10 10:59:52;;;;;;;1.92;0.20;;;35.70;44.10;;;;;;4985585;28;20133;-55
2022/08/10 11:02:57;;;;;;;2.25;0.28;;;33.70;44.70;;;;;;4985087;28;20452;-52
2022/08/10 11:05:33;;;;;;;1.45;0.20;;;32.80;49.00;;;;;;4976798;28;20050;-54
2022/08/10 11:08:18;;;;;;;1.90;0.30;;;32.00;49.20;;;;;;4985652;28;20034;-46
2022/08/10 11:10:51;;;;;;;2.78;0.30;;;31.30;49.20;;;;;;4985174;28;20050;-45
2022/08/10 11:13:33;;;;;;;2.25;0.20;;;30.70;50.40;;;;;;4985451;28;20038;-48
2022/08/10 11:16:03;;;;;;;;;;;30.30;51.30;;;;;;4986425;28;20159;-50
2022/08/10 11:19:06;;;;;;;3.07;0.40;;;30.00;53.10;;;;;;4988843;28;19932;-48
2022/08/10 11:21:55;;;;;;;2.30;0.43;;;29.70;52.60;;;;;;4989093;28;20057;-60
2022/08/10 11:24:40;;;;;;;5.97;0.77;;;29.40;52.50;;;;;;4989735;28;20050;-57
2022/08/10 11:27:22;;;;;;;1.75;0.40;;;29.10;53.30;;;;;;4990011;28;20038;-57
2022/08/10 11:30:02;;;;;;;2.38;0.40;;;28.90;53.50;;;;;;4989205;28;20057;-60
2022/08/10 11:32:43;;;;;;;2.88;0.20;;;28.70;53.40;;;;;;4989058;28;20054;-44
2022/08/10 11:35:25;;;;;;;3.05;0.30;;;28.60;53.20;;;;;;4987175;28;20054;-42
2022/08/10 11:38:14;;;;;;;2.10;0.50;;;28.40;53.60;;;;;;4986821;28;20305;-43
2022/08/10 11:41:00;;;;;;;2.47;0.40;;;28.20;54.90;;;;;;4987410;28;20237;-43
2022/08/10 11:43:28;;;;;;;1.05;0.30;;;28.00;56.10;;;;;;4987151;28;20100;-43
2022/08/10 11:45:59;;;;;;;3.00;0.30;;;27.80;55.00;;;;;;4986984;28;20047;-42
2022/08/10 11:48:39;;;;;;;2.90;0.28;;;27.70;59.90;;;;;;4986703;28;20489;-43
2022/08/10 11:51:13;;;;;;;1.92;0.40;;;27.60;58.40;;;;;;4986780;28;20550;-43
2022/08/10 11:53:55;;;;;;;2.83;0.30;;;27.60;58.80;;;;;;4987307;28;20049;-43
2022/08/10 11:56:31;;;;;;;1.23;0.30;;;27.60;60.30;;;;;;4987001;28;20452;-42
2022/08/10 12:01:44;;;;;;;2.45;0.30;;;27.60;60.20;;;;;;4986384;28;20658;-44
2022/08/10 12:04:12;;;;;;;2.03;0.55;;;27.60;63.60;;;;;;4986790;28;20042;-44
2022/08/10 12:06:40;;;;;;;2.15;0.30;;;27.50;61.20;;;;;;4986582;28;20057;-43
2022/08/10 12:09:08;;;;;;;2.78;0.38;;;27.50;64.70;;;;;;4986597;28;20053;-43
2022/08/10 12:11:34;;;;;;;1.30;0.30;;;27.40;65.60;;;;;;4987499;28;20046;-42
2022/08/10 12:14:03;;;;;;;0.77;0.20;;;27.40;64.30;;;;;;4987076;28;20069;-45
2022/08/10 12:16:33;;;;;;;2.65;0.40;;;27.40;61.80;;;;;;4987479;28;20046;-43
2022/08/10 12:19:03;;;;;;;0.50;0.20;;;27.30;62.50;;;;;;4986453;28;20558;-42
2022/08/10 12:21:43;;;;;;;3.53;0.25;;;27.20;54.30;;;;;;4987401;28;20483;-47
2022/08/10 12:24:35;;;;;;;2.30;0.20;;;27.30;55.60;;;;;;4986305;28;20088;-46
2022/08/10 12:27:20;;;;;;;2.33;0.47;;;27.30;54.80;;;;;;4986202;28;20046;-43
2022/08/10 12:30:04;;;;;;;1.70;0.40;;;27.30;56.70;;;;;;4987078;28;20401;-43
2022/08/10 12:32:59;;;;;;;5.57;0.45;;;27.30;56.10;;;;;;4986312;28;20504;-44
2022/08/10 12:35:39;;;;;;;1.60;0.20;;;27.30;56.10;;;;;;4986330;28;20529;-42
2022/08/10 12:38:13;;;;;;;3.95;0.22;;;27.30;57.20;;;;;;4986555;28;20086;-43
2022/08/10 12:40:46;;;;;;;3.15;0.40;;;27.30;57.40;;;;;;4986895;28;20057;-43
2022/08/10 12:43:25;;;;;;;1.45;0.40;;;27.30;58.10;;;;;;4986609;28;20548;-41
2022/08/10 12:46:12;;;;;;;3.25;0.40;;;27.40;58.90;;;;;;4987023;28;20104;-45
2022/08/10 12:48:50;;;;;;;5.70;0.73;;;27.30;58.40;;;;;;4986454;28;20053;-45
2022/08/10 12:51:20;;;;;;;4.57;0.50;;;27.40;58.10;;;;;;4986747;28;20074;-42
2022/08/10 12:54:12;;;;;;;2.78;0.25;;;27.30;57.50;;;;;;4985873;28;20515;-42
2022/08/10 12:57:07;;;;;;;2.92;0.30;;;27.30;57.80;;;;;;4982813;28;20123;-44
2022/08/10 12:59:36;;;;;;;1.67;0.30;;;27.30;57.30;;;;;;4986870;28;20121;-43
2022/08/10 13:02:04;;;;;;;3.70;0.40;;;27.30;58.30;;;;;;4986685;28;20357;-44
2022/08/10 13:04:33;;;;;;;4.30;0.70;;;27.30;57.80;;;;;;4985558;28;20117;-42
2022/08/10 13:07:01;;;;;;;1.38;0.30;;;27.30;57.60;;;;;;4985907;28;20108;-42
2022/08/10 13:09:27;;;;;;;1.77;0.30;;;27.30;56.70;;;;;;4986634;28;20039;-42
2022/08/10 13:12:10;;;;;;;4.85;0.88;;;27.30;57.80;;;;;;4986342;28;20053;-45
2022/08/10 13:14:56;;;;;;;6.97;0.38;;;27.30;57.70;;;;;;4986253;28;20093;-42
2022/08/10 13:17:26;;;;;;;0.70;0.30;;;27.20;57.80;;;;;;4985912;28;20089;-43
2022/08/10 13:19:54;;;;;;;3.08;0.40;;;27.30;58.80;;;;;;4986322;28;20042;-44
2022/08/10 13:22:22;;;;;;;3.63;0.30;;;27.20;58.30;;;;;;4986274;28;20073;-42